Coral, Illinois
Current Conditions -  °F | °C
As of 7:35 PM on Tuesday 25 Nov 2014 (Local Time) from KDKB Reporting Station
Clear Clear  
Wind Chill: 13°   Ceiling: Unl
Heat Index: 13°   Visibility: 7mi
Dew Point: 11°   Wind: 3mph
Humidity: 90%   Direction: 170°S
Pressure: 30.16"   Gusts: NA
Location:  42.2385°N, 88.6273°W
Report Text: KDKB 260135Z AUTO 17003KT 7SM CLR M11/M12 A3016 RMK AO2 T11061119
Loading
Personal Weather Stations






























Interactive Weather Map New forecast layout! Learn more

10-Day Weather Forecast

Advertisements
Track Severe Weather on mobile